sensor_id;sensor_type;location;lat;lon;timestamp;P1;durP1;ratioP1;P2;durP2;ratioP2
35877;SDS011;21982;49.804;24.072;2023-07-31T00:02:22;5.53;;;3.75;;
35877;SDS011;21982;49.804;24.072;2023-07-31T00:04:47;6.43;;;3.45;;
35877;SDS011;21982;49.804;24.072;2023-07-31T00:07:14;5.57;;;3.25;;
35877;SDS011;21982;49.804;24.072;2023-07-31T00:09:39;7.45;;;3.65;;
35877;SDS011;21982;49.804;24.072;2023-07-31T00:12:04;7.07;;;3.20;;
35877;SDS011;21982;49.804;24.072;2023-07-31T00:14:30;7.95;;;3.33;;
35877;SDS011;21982;49.804;24.072;2023-07-31T00:16:55;7.88;;;3.58;;
35877;SDS011;21982;49.804;24.072;2023-07-31T00:19:21;5.47;;;3.47;;
35877;SDS011;21982;49.804;24.072;2023-07-31T00:21:46;5.22;;;3.85;;
35877;SDS011;21982;49.804;24.072;2023-07-31T00:24:12;7.63;;;3.40;;
35877;SDS011;21982;49.804;24.072;2023-07-31T00:26:37;6.50;;;3.28;;
35877;SDS011;21982;49.804;24.072;2023-07-31T00:29:02;6.13;;;3.22;;
35877;SDS011;21982;49.804;24.072;2023-07-31T00:31:28;5.70;;;3.33;;
35877;SDS011;21982;49.804;24.072;2023-07-31T00:33:53;4.68;;;2.75;;
35877;SDS011;21982;49.804;24.072;2023-07-31T00:36:18;6.03;;;2.97;;
35877;SDS011;21982;49.804;24.072;2023-07-31T00:38:44;5.32;;;2.65;;
35877;SDS011;21982;49.804;24.072;2023-07-31T00:41:09;5.63;;;2.60;;
35877;SDS011;21982;49.804;24.072;2023-07-31T00:43:35;6.00;;;3.03;;
35877;SDS011;21982;49.804;24.072;2023-07-31T00:46:00;5.22;;;2.80;;
35877;SDS011;21982;49.804;24.072;2023-07-31T00:48:25;5.97;;;3.30;;
35877;SDS011;21982;49.804;24.072;2023-07-31T00:50:51;4.85;;;2.45;;
35877;SDS011;21982;49.804;24.072;2023-07-31T00:53:17;5.68;;;2.63;;
35877;SDS011;21982;49.804;24.072;2023-07-31T00:55:43;6.00;;;2.50;;
35877;SDS011;21982;49.804;24.072;2023-07-31T00:58:09;4.22;;;2.55;;
35877;SDS011;21982;49.804;24.072;2023-07-31T01:00:35;4.20;;;2.60;;
35877;SDS011;21982;49.804;24.072;2023-07-31T01:03:00;5.10;;;2.78;;
35877;SDS011;21982;49.804;24.072;2023-07-31T01:05:32;4.45;;;2.45;;
35877;SDS011;21982;49.804;24.072;2023-07-31T01:08:09;5.50;;;2.63;;
35877;SDS011;21982;49.804;24.072;2023-07-31T01:10:46;7.72;;;2.78;;
35877;SDS011;21982;49.804;24.072;2023-07-31T01:13:15;4.72;;;2.70;;
35877;SDS011;21982;49.804;24.072;2023-07-31T01:15:42;6.60;;;2.85;;
35877;SDS011;21982;49.804;24.072;2023-07-31T01:18:08;4.63;;;2.60;;
35877;SDS011;21982;49.804;24.072;2023-07-31T01:20:34;5.65;;;2.58;;
35877;SDS011;21982;49.804;24.072;2023-07-31T01:31:07;6.85;;;2.97;;
35877;SDS011;21982;49.804;24.072;2023-07-31T01:33:36;5.22;;;2.92;;
35877;SDS011;21982;49.804;24.072;2023-07-31T01:36:03;5.10;;;2.42;;
35877;SDS011;21982;49.804;24.072;2023-07-31T01:38:30;6.30;;;2.85;;
35877;SDS011;21982;49.804;24.072;2023-07-31T01:40:55;6.68;;;2.80;;
35877;SDS011;21982;49.804;24.072;2023-07-31T01:43:21;9.85;;;2.88;;
35877;SDS011;21982;49.804;24.072;2023-07-31T01:45:46;6.60;;;2.85;;
35877;SDS011;21982;49.804;24.072;2023-07-31T01:48:13;5.70;;;2.47;;
35877;SDS011;21982;49.804;24.072;2023-07-31T01:50:39;4.78;;;2.78;;
35877;SDS011;21982;49.804;24.072;2023-07-31T01:53:04;5.82;;;2.83;;
35877;SDS011;21982;49.804;24.072;2023-07-31T01:55:30;4.85;;;2.47;;
35877;SDS011;21982;49.804;24.072;2023-07-31T01:57:55;5.45;;;2.80;;
35877;SDS011;21982;49.804;24.072;2023-07-31T02:00:20;5.57;;;3.25;;
35877;SDS011;21982;49.804;24.072;2023-07-31T02:02:46;6.40;;;3.00;;
35877;SDS011;21982;49.804;24.072;2023-07-31T02:05:11;4.70;;;2.60;;
35877;SDS011;21982;49.804;24.072;2023-07-31T02:07:38;4.15;;;2.50;;
35877;SDS011;21982;49.804;24.072;2023-07-31T02:10:03;5.85;;;2.60;;
35877;SDS011;21982;49.804;24.072;2023-07-31T02:12:29;5.10;;;2.22;;
35877;SDS011;21982;49.804;24.072;2023-07-31T02:14:58;7.05;;;3.15;;
35877;SDS011;21982;49.804;24.072;2023-07-31T02:17:24;6.95;;;3.35;;
35877;SDS011;21982;49.804;24.072;2023-07-31T02:19:49;7.05;;;3.72;;
35877;SDS011;21982;49.804;24.072;2023-07-31T02:22:15;6.28;;;3.45;;
35877;SDS011;21982;49.804;24.072;2023-07-31T02:24:40;5.93;;;3.58;;
35877;SDS011;21982;49.804;24.072;2023-07-31T02:27:05;9.43;;;4.60;;
35877;SDS011;21982;49.804;24.072;2023-07-31T02:29:31;5.65;;;3.25;;
35877;SDS011;21982;49.804;24.072;2023-07-31T02:31:56;6.63;;;3.45;;
35877;SDS011;21982;49.804;24.072;2023-07-31T02:34:22;5.50;;;2.50;;
35877;SDS011;21982;49.804;24.072;2023-07-31T02:36:47;4.80;;;2.55;;
35877;SDS011;21982;49.804;24.072;2023-07-31T02:39:13;3.80;;;2.30;;
35877;SDS011;21982;49.804;24.072;2023-07-31T02:41:38;6.80;;;2.40;;
35877;SDS011;21982;49.804;24.072;2023-07-31T02:44:03;5.43;;;2.03;;
35877;SDS011;21982;49.804;24.072;2023-07-31T02:46:29;3.85;;;1.92;;
35877;SDS011;21982;49.804;24.072;2023-07-31T02:48:54;5.60;;;2.20;;
35877;SDS011;21982;49.804;24.072;2023-07-31T02:51:20;7.18;;;2.90;;
35877;SDS011;21982;49.804;24.072;2023-07-31T02:53:46;5.15;;;2.45;;
35877;SDS011;21982;49.804;24.072;2023-07-31T02:56:12;4.35;;;2.47;;
35877;SDS011;21982;49.804;24.072;2023-07-31T02:58:38;5.68;;;2.45;;
35877;SDS011;21982;49.804;24.072;2023-07-31T03:01:03;7.22;;;2.53;;
35877;SDS011;21982;49.804;24.072;2023-07-31T03:03:29;9.60;;;2.75;;
35877;SDS011;21982;49.804;24.072;2023-07-31T03:05:54;5.13;;;2.70;;
35877;SDS011;21982;49.804;24.072;2023-07-31T03:08:19;6.07;;;2.80;;
35877;SDS011;21982;49.804;24.072;2023-07-31T03:10:45;5.88;;;2.63;;
35877;SDS011;21982;49.804;24.072;2023-07-31T03:13:15;4.65;;;2.88;;
35877;SDS011;21982;49.804;24.072;2023-07-31T03:15:44;4.82;;;3.25;;
35877;SDS011;21982;49.804;24.072;2023-07-31T03:18:09;7.93;;;5.25;;
35877;SDS011;21982;49.804;24.072;2023-07-31T03:20:35;12.38;;;6.05;;
35877;SDS011;21982;49.804;24.072;2023-07-31T03:23:00;6.85;;;3.58;;
35877;SDS011;21982;49.804;24.072;2023-07-31T03:25:25;6.78;;;3.20;;
35877;SDS011;21982;49.804;24.072;2023-07-31T03:27:52;6.10;;;3.10;;
35877;SDS011;21982;49.804;24.072;2023-07-31T03:30:17;6.10;;;2.60;;
35877;SDS011;21982;49.804;24.072;2023-07-31T03:32:42;5.55;;;2.78;;
35877;SDS011;21982;49.804;24.072;2023-07-31T03:35:08;6.38;;;2.50;;
35877;SDS011;21982;49.804;24.072;2023-07-31T03:37:34;6.07;;;2.55;;
35877;SDS011;21982;49.804;24.072;2023-07-31T03:39:59;6.97;;;3.20;;
35877;SDS011;21982;49.804;24.072;2023-07-31T03:42:24;5.32;;;2.60;;
35877;SDS011;21982;49.804;24.072;2023-07-31T03:44:50;8.10;;;2.60;;
35877;SDS011;21982;49.804;24.072;2023-07-31T03:47:16;6.25;;;3.17;;
35877;SDS011;21982;49.804;24.072;2023-07-31T03:49:42;6.28;;;2.75;;
35877;SDS011;21982;49.804;24.072;2023-07-31T03:52:09;6.40;;;3.80;;
35877;SDS011;21982;49.804;24.072;2023-07-31T03:54:36;9.20;;;3.88;;
35877;SDS011;21982;49.804;24.072;2023-07-31T03:57:01;10.38;;;4.32;;
35877;SDS011;21982;49.804;24.072;2023-07-31T03:59:27;7.97;;;3.40;;
35877;SDS011;21982;49.804;24.072;2023-07-31T04:01:52;8.50;;;4.00;;
35877;SDS011;21982;49.804;24.072;2023-07-31T04:04:17;5.55;;;3.40;;
35877;SDS011;21982;49.804;24.072;2023-07-31T04:06:43;5.65;;;3.22;;
35877;SDS011;21982;49.804;24.072;2023-07-31T04:09:09;6.82;;;3.72;;
35877;SDS011;21982;49.804;24.072;2023-07-31T04:11:35;6.97;;;3.88;;
35877;SDS011;21982;49.804;24.072;2023-07-31T04:14:00;9.73;;;4.85;;
35877;SDS011;21982;49.804;24.072;2023-07-31T04:16:27;8.27;;;4.80;;
35877;SDS011;21982;49.804;24.072;2023-07-31T04:18:52;9.18;;;4.90;;
35877;SDS011;21982;49.804;24.072;2023-07-31T04:21:18;11.30;;;5.40;;
35877;SDS011;21982;49.804;24.072;2023-07-31T04:23:44;11.50;;;4.80;;
35877;SDS011;21982;49.804;24.072;2023-07-31T04:26:09;12.73;;;5.72;;
35877;SDS011;21982;49.804;24.072;2023-07-31T04:28:35;13.68;;;6.13;;
35877;SDS011;21982;49.804;24.072;2023-07-31T04:31:00;16.15;;;6.28;;
35877;SDS011;21982;49.804;24.072;2023-07-31T04:33:26;17.95;;;7.22;;
35877;SDS011;21982;49.804;24.072;2023-07-31T04:35:52;13.75;;;7.05;;
35877;SDS011;21982;49.804;24.072;2023-07-31T04:38:18;19.08;;;8.05;;
35877;SDS011;21982;49.804;24.072;2023-07-31T04:40:44;16.23;;;6.60;;
35877;SDS011;21982;49.804;24.072;2023-07-31T04:43:10;14.82;;;6.82;;
35877;SDS011;21982;49.804;24.072;2023-07-31T04:45:36;13.43;;;7.00;;
35877;SDS011;21982;49.804;24.072;2023-07-31T04:48:01;15.77;;;6.90;;
35877;SDS011;21982;49.804;24.072;2023-07-31T04:50:29;14.02;;;6.38;;
35877;SDS011;21982;49.804;24.072;2023-07-31T04:52:55;12.45;;;5.38;;
35877;SDS011;21982;49.804;24.072;2023-07-31T04:55:21;12.45;;;5.57;;
35877;SDS011;21982;49.804;24.072;2023-07-31T04:57:48;11.60;;;6.05;;
35877;SDS011;21982;49.804;24.072;2023-07-31T05:00:14;16.67;;;5.90;;
35877;SDS011;21982;49.804;24.072;2023-07-31T05:02:40;15.25;;;6.07;;
35877;SDS011;21982;49.804;24.072;2023-07-31T05:05:06;12.02;;;7.03;;
35877;SDS011;21982;49.804;24.072;2023-07-31T05:07:31;9.98;;;5.20;;
35877;SDS011;21982;49.804;24.072;2023-07-31T05:09:57;14.43;;;5.40;;
35877;SDS011;21982;49.804;24.072;2023-07-31T05:12:22;11.73;;;5.85;;
35877;SDS011;21982;49.804;24.072;2023-07-31T05:14:48;11.52;;;4.85;;
35877;SDS011;21982;49.804;24.072;2023-07-31T05:17:13;11.60;;;4.93;;
35877;SDS011;21982;49.804;24.072;2023-07-31T05:19:38;11.27;;;4.38;;
35877;SDS011;21982;49.804;24.072;2023-07-31T05:22:04;12.50;;;4.20;;
35877;SDS011;21982;49.804;24.072;2023-07-31T05:24:29;7.53;;;3.78;;
35877;SDS011;21982;49.804;24.072;2023-07-31T05:26:55;8.73;;;3.55;;
35877;SDS011;21982;49.804;24.072;2023-07-31T05:29:23;8.85;;;4.13;;
35877;SDS011;21982;49.804;24.072;2023-07-31T05:31:51;9.05;;;4.28;;
35877;SDS011;21982;49.804;24.072;2023-07-31T05:34:16;6.05;;;4.30;;
35877;SDS011;21982;49.804;24.072;2023-07-31T05:36:42;9.20;;;4.93;;
35877;SDS011;21982;49.804;24.072;2023-07-31T05:39:10;10.23;;;3.10;;
35877;SDS011;21982;49.804;24.072;2023-07-31T05:41:36;6.72;;;3.60;;
35877;SDS011;21982;49.804;24.072;2023-07-31T05:44:01;7.43;;;3.70;;
35877;SDS011;21982;49.804;24.072;2023-07-31T05:46:27;6.35;;;3.13;;
35877;SDS011;21982;49.804;24.072;2023-07-31T05:48:53;7.65;;;3.35;;
35877;SDS011;21982;49.804;24.072;2023-07-31T05:51:18;9.40;;;3.97;;
35877;SDS011;21982;49.804;24.072;2023-07-31T05:53:43;8.02;;;3.55;;
35877;SDS011;21982;49.804;24.072;2023-07-31T05:56:09;7.10;;;3.40;;
35877;SDS011;21982;49.804;24.072;2023-07-31T05:58:35;6.35;;;3.33;;
35877;SDS011;21982;49.804;24.072;2023-07-31T06:01:00;9.43;;;3.58;;
35877;SDS011;21982;49.804;24.072;2023-07-31T06:08:36;9.40;;;3.30;;
35877;SDS011;21982;49.804;24.072;2023-07-31T06:11:01;8.95;;;4.00;;
35877;SDS011;21982;49.804;24.072;2023-07-31T06:13:27;6.45;;;3.42;;
35877;SDS011;21982;49.804;24.072;2023-07-31T06:15:52;9.88;;;3.90;;
35877;SDS011;21982;49.804;24.072;2023-07-31T06:18:18;6.13;;;3.50;;
35877;SDS011;21982;49.804;24.072;2023-07-31T06:20:47;9.18;;;3.78;;
35877;SDS011;21982;49.804;24.072;2023-07-31T06:23:18;11.63;;;4.30;;
35877;SDS011;21982;49.804;24.072;2023-07-31T06:25:48;10.05;;;3.53;;
35877;SDS011;21982;49.804;24.072;2023-07-31T06:28:13;10.27;;;3.75;;
35877;SDS011;21982;49.804;24.072;2023-07-31T06:30:40;6.47;;;2.92;;
35877;SDS011;21982;49.804;24.072;2023-07-31T06:33:05;6.65;;;2.17;;
35877;SDS011;21982;49.804;24.072;2023-07-31T06:35:33;5.43;;;2.35;;
35877;SDS011;21982;49.804;24.072;2023-07-31T06:37:59;5.88;;;2.33;;
35877;SDS011;21982;49.804;24.072;2023-07-31T06:40:24;6.63;;;2.40;;
35877;SDS011;21982;49.804;24.072;2023-07-31T06:42:50;6.22;;;2.97;;
35877;SDS011;21982;49.804;24.072;2023-07-31T06:45:15;7.65;;;2.78;;
35877;SDS011;21982;49.804;24.072;2023-07-31T06:47:40;6.28;;;3.17;;
35877;SDS011;21982;49.804;24.072;2023-07-31T06:50:06;4.68;;;2.55;;
35877;SDS011;21982;49.804;24.072;2023-07-31T06:52:33;8.25;;;3.60;;
35877;SDS011;21982;49.804;24.072;2023-07-31T06:55:02;7.07;;;2.78;;
35877;SDS011;21982;49.804;24.072;2023-07-31T06:57:50;7.65;;;3.05;;
35877;SDS011;21982;49.804;24.072;2023-07-31T07:00:17;3.95;;;2.35;;
35877;SDS011;21982;49.804;24.072;2023-07-31T07:02:44;8.95;;;2.83;;
35877;SDS011;21982;49.804;24.072;2023-07-31T07:05:12;6.57;;;2.78;;
35877;SDS011;21982;49.804;24.072;2023-07-31T07:07:41;8.02;;;2.78;;
35877;SDS011;21982;49.804;24.072;2023-07-31T07:10:07;6.22;;;3.10;;
35877;SDS011;21982;49.804;24.072;2023-07-31T07:12:33;6.97;;;3.65;;
35877;SDS011;21982;49.804;24.072;2023-07-31T07:14:59;3.90;;;2.30;;
35877;SDS011;21982;49.804;24.072;2023-07-31T07:17:29;9.15;;;3.10;;
35877;SDS011;21982;49.804;24.072;2023-07-31T07:19:57;7.55;;;3.05;;
35877;SDS011;21982;49.804;24.072;2023-07-31T07:22:23;5.93;;;2.40;;
35877;SDS011;21982;49.804;24.072;2023-07-31T07:24:49;10.00;;;3.28;;
35877;SDS011;21982;49.804;24.072;2023-07-31T07:27:14;5.05;;;2.45;;
35877;SDS011;21982;49.804;24.072;2023-07-31T07:34:50;5.00;;;1.85;;
35877;SDS011;21982;49.804;24.072;2023-07-31T07:37:16;5.78;;;2.25;;
35877;SDS011;21982;49.804;24.072;2023-07-31T07:39:41;6.32;;;1.70;;
35877;SDS011;21982;49.804;24.072;2023-07-31T07:42:07;5.45;;;1.92;;
35877;SDS011;21982;49.804;24.072;2023-07-31T07:44:33;4.50;;;2.20;;
35877;SDS011;21982;49.804;24.072;2023-07-31T07:46:59;5.18;;;1.95;;
35877;SDS011;21982;49.804;24.072;2023-07-31T07:49:25;3.03;;;1.70;;
35877;SDS011;21982;49.804;24.072;2023-07-31T07:51:50;4.78;;;2.00;;
35877;SDS011;21982;49.804;24.072;2023-07-31T07:54:16;4.35;;;1.80;;
35877;SDS011;21982;49.804;24.072;2023-07-31T07:56:42;5.47;;;1.95;;
35877;SDS011;21982;49.804;24.072;2023-07-31T08:01:43;2.97;;;1.40;;
35877;SDS011;21982;49.804;24.072;2023-07-31T08:04:08;2.83;;;1.60;;
35877;SDS011;21982;49.804;24.072;2023-07-31T08:06:33;4.38;;;2.08;;
35877;SDS011;21982;49.804;24.072;2023-07-31T08:09:00;5.45;;;1.73;;
35877;SDS011;21982;49.804;24.072;2023-07-31T08:11:32;3.65;;;1.70;;
35877;SDS011;21982;49.804;24.072;2023-07-31T08:13:58;3.70;;;1.38;;
35877;SDS011;21982;49.804;24.072;2023-07-31T08:16:23;4.97;;;1.65;;
35877;SDS011;21982;49.804;24.072;2023-07-31T08:18:48;3.92;;;1.83;;
35877;SDS011;21982;49.804;24.072;2023-07-31T08:21:14;6.32;;;2.10;;
35877;SDS011;21982;49.804;24.072;2023-07-31T08:23:40;6.68;;;1.83;;
35877;SDS011;21982;49.804;24.072;2023-07-31T08:26:06;3.40;;;1.88;;
35877;SDS011;21982;49.804;24.072;2023-07-31T08:28:32;5.75;;;1.67;;
35877;SDS011;21982;49.804;24.072;2023-07-31T08:30:57;4.47;;;2.13;;
35877;SDS011;21982;49.804;24.072;2023-07-31T08:33:23;2.38;;;1.52;;
35877;SDS011;21982;49.804;24.072;2023-07-31T08:35:48;3.88;;;1.60;;
35877;SDS011;21982;49.804;24.072;2023-07-31T08:38:15;2.40;;;1.48;;
35877;SDS011;21982;49.804;24.072;2023-07-31T08:40:40;3.88;;;2.25;;
35877;SDS011;21982;49.804;24.072;2023-07-31T08:43:06;4.05;;;1.90;;
35877;SDS011;21982;49.804;24.072;2023-07-31T08:45:33;7.00;;;2.17;;
35877;SDS011;21982;49.804;24.072;2023-07-31T08:48:01;3.35;;;1.70;;
35877;SDS011;21982;49.804;24.072;2023-07-31T08:50:26;4.22;;;1.52;;
35877;SDS011;21982;49.804;24.072;2023-07-31T08:52:53;2.40;;;1.45;;
35877;SDS011;21982;49.804;24.072;2023-07-31T08:55:19;3.65;;;1.65;;
35877;SDS011;21982;49.804;24.072;2023-07-31T08:57:50;8.02;;;1.60;;
35877;SDS011;21982;49.804;24.072;2023-07-31T09:00:19;4.43;;;2.47;;
35877;SDS011;21982;49.804;24.072;2023-07-31T09:03:03;4.15;;;2.38;;
35877;SDS011;21982;49.804;24.072;2023-07-31T09:08:15;3.60;;;1.80;;
35877;SDS011;21982;49.804;24.072;2023-07-31T09:10:49;6.05;;;2.00;;
35877;SDS011;21982;49.804;24.072;2023-07-31T09:13:19;5.15;;;2.13;;
35877;SDS011;21982;49.804;24.072;2023-07-31T09:15:49;4.80;;;1.70;;
35877;SDS011;21982;49.804;24.072;2023-07-31T09:18:16;5.68;;;2.35;;
35877;SDS011;21982;49.804;24.072;2023-07-31T09:20:45;7.25;;;2.28;;
35877;SDS011;21982;49.804;24.072;2023-07-31T09:23:12;3.35;;;1.88;;
35877;SDS011;21982;49.804;24.072;2023-07-31T09:25:43;5.50;;;2.45;;
35877;SDS011;21982;49.804;24.072;2023-07-31T09:28:10;5.05;;;2.20;;
35877;SDS011;21982;49.804;24.072;2023-07-31T09:31:09;3.88;;;1.65;;
35877;SDS011;21982;49.804;24.072;2023-07-31T09:33:28;4.38;;;1.55;;
35877;SDS011;21982;49.804;24.072;2023-07-31T09:35:53;3.20;;;1.83;;
35877;SDS011;21982;49.804;24.072;2023-07-31T09:38:22;3.38;;;1.88;;
35877;SDS011;21982;49.804;24.072;2023-07-31T09:40:49;6.72;;;1.98;;
35877;SDS011;21982;49.804;24.072;2023-07-31T09:43:22;4.55;;;1.70;;
35877;SDS011;21982;49.804;24.072;2023-07-31T09:45:52;5.32;;;2.25;;
35877;SDS011;21982;49.804;24.072;2023-07-31T09:48:22;5.32;;;2.03;;
35877;SDS011;21982;49.804;24.072;2023-07-31T09:50:51;4.75;;;2.70;;
35877;SDS011;21982;49.804;24.072;2023-07-31T09:53:17;5.13;;;2.40;;
35877;SDS011;21982;49.804;24.072;2023-07-31T09:55:43;4.38;;;2.38;;
35877;SDS011;21982;49.804;24.072;2023-07-31T09:58:10;6.80;;;2.35;;
35877;SDS011;21982;49.804;24.072;2023-07-31T10:00:38;4.78;;;2.67;;
35877;SDS011;21982;49.804;24.072;2023-07-31T10:03:05;6.80;;;2.47;;
35877;SDS011;21982;49.804;24.072;2023-07-31T10:05:35;4.60;;;2.25;;
35877;SDS011;21982;49.804;24.072;2023-07-31T10:08:04;3.95;;;2.15;;
35877;SDS011;21982;49.804;24.072;2023-07-31T10:10:31;3.05;;;1.50;;
35877;SDS011;21982;49.804;24.072;2023-07-31T10:12:59;3.35;;;2.10;;
35877;SDS011;21982;49.804;24.072;2023-07-31T10:15:26;3.53;;;2.03;;
35877;SDS011;21982;49.804;24.072;2023-07-31T10:17:54;3.95;;;2.25;;
35877;SDS011;21982;49.804;24.072;2023-07-31T10:20:21;4.57;;;1.95;;
35877;SDS011;21982;49.804;24.072;2023-07-31T10:22:47;3.83;;;1.98;;
35877;SDS011;21982;49.804;24.072;2023-07-31T10:25:15;3.33;;;1.90;;
35877;SDS011;21982;49.804;24.072;2023-07-31T10:27:41;3.08;;;1.70;;
35877;SDS011;21982;49.804;24.072;2023-07-31T10:30:11;3.33;;;1.33;;
35877;SDS011;21982;49.804;24.072;2023-07-31T10:32:40;7.90;;;1.70;;
35877;SDS011;21982;49.804;24.072;2023-07-31T10:35:09;3.08;;;1.65;;
35877;SDS011;21982;49.804;24.072;2023-07-31T10:37:40;3.42;;;2.05;;
35877;SDS011;21982;49.804;24.072;2023-07-31T10:40:35;3.20;;;1.55;;
35877;SDS011;21982;49.804;24.072;2023-07-31T10:43:01;2.88;;;1.45;;
35877;SDS011;21982;49.804;24.072;2023-07-31T10:45:39;4.85;;;1.45;;
35877;SDS011;21982;49.804;24.072;2023-07-31T10:48:15;2.53;;;1.15;;
35877;SDS011;21982;49.804;24.072;2023-07-31T10:55:59;4.05;;;1.67;;
35877;SDS011;21982;49.804;24.072;2023-07-31T10:58:25;3.38;;;1.40;;
35877;SDS011;21982;49.804;24.072;2023-07-31T11:00:54;2.15;;;1.33;;
35877;SDS011;21982;49.804;24.072;2023-07-31T11:03:24;2.13;;;1.33;;
35877;SDS011;21982;49.804;24.072;2023-07-31T11:06:06;2.90;;;1.50;;
35877;SDS011;21982;49.804;24.072;2023-07-31T11:08:32;3.83;;;1.70;;
35877;SDS011;21982;49.804;24.072;2023-07-31T11:13:53;2.95;;;1.48;;
35877;SDS011;21982;49.804;24.072;2023-07-31T11:16:21;4.90;;;1.08;;
35877;SDS011;21982;49.804;24.072;2023-07-31T11:18:48;4.22;;;1.50;;
35877;SDS011;21982;49.804;24.072;2023-07-31T11:21:14;3.28;;;1.30;;
35877;SDS011;21982;49.804;24.072;2023-07-31T11:23:41;1.70;;;1.15;;
35877;SDS011;21982;49.804;24.072;2023-07-31T11:26:11;3.28;;;1.58;;
35877;SDS011;21982;49.804;24.072;2023-07-31T11:28:37;3.38;;;1.27;;
35877;SDS011;21982;49.804;24.072;2023-07-31T11:31:03;1.77;;;1.08;;
35877;SDS011;21982;49.804;24.072;2023-07-31T11:33:30;2.78;;;1.30;;
35877;SDS011;21982;49.804;24.072;2023-07-31T11:35:56;2.22;;;1.25;;
35877;SDS011;21982;49.804;24.072;2023-07-31T11:38:26;4.88;;;1.35;;
35877;SDS011;21982;49.804;24.072;2023-07-31T11:41:00;3.72;;;1.48;;
35877;SDS011;21982;49.804;24.072;2023-07-31T11:43:29;5.75;;;1.42;;
35877;SDS011;21982;49.804;24.072;2023-07-31T11:45:56;2.95;;;0.90;;
35877;SDS011;21982;49.804;24.072;2023-07-31T11:48:26;3.90;;;1.02;;
35877;SDS011;21982;49.804;24.072;2023-07-31T11:50:54;3.08;;;1.10;;
35877;SDS011;21982;49.804;24.072;2023-07-31T11:53:34;4.53;;;1.10;;
35877;SDS011;21982;49.804;24.072;2023-07-31T11:56:03;3.17;;;1.70;;
35877;SDS011;21982;49.804;24.072;2023-07-31T11:58:30;3.63;;;1.27;;
35877;SDS011;21982;49.804;24.072;2023-07-31T12:00:56;2.40;;;1.33;;
35877;SDS011;21982;49.804;24.072;2023-07-31T12:03:23;6.20;;;1.70;;
35877;SDS011;21982;49.804;24.072;2023-07-31T12:05:50;3.47;;;1.13;;
35877;SDS011;21982;49.804;24.072;2023-07-31T12:08:15;4.38;;;1.33;;
35877;SDS011;21982;49.804;24.072;2023-07-31T12:10:41;3.67;;;1.65;;
35877;SDS011;21982;49.804;24.072;2023-07-31T12:13:10;3.95;;;1.33;;
35877;SDS011;21982;49.804;24.072;2023-07-31T12:18:12;2.65;;;1.60;;
35877;SDS011;21982;49.804;24.072;2023-07-31T12:20:44;2.65;;;1.20;;
35877;SDS011;21982;49.804;24.072;2023-07-31T12:23:14;4.05;;;1.40;;
35877;SDS011;21982;49.804;24.072;2023-07-31T12:25:40;4.43;;;1.60;;
35877;SDS011;21982;49.804;24.072;2023-07-31T12:28:07;3.78;;;1.52;;
35877;SDS011;21982;49.804;24.072;2023-07-31T12:30:36;5.63;;;2.13;;
35877;SDS011;21982;49.804;24.072;2023-07-31T12:33:12;7.15;;;1.60;;
35877;SDS011;21982;49.804;24.072;2023-07-31T12:35:45;2.85;;;1.30;;
35877;SDS011;21982;49.804;24.072;2023-07-31T12:38:13;2.72;;;1.77;;
35877;SDS011;21982;49.804;24.072;2023-07-31T12:40:40;3.22;;;1.35;;
35877;SDS011;21982;49.804;24.072;2023-07-31T12:43:06;3.83;;;1.13;;
35877;SDS011;21982;49.804;24.072;2023-07-31T12:45:33;2.92;;;1.42;;
35877;SDS011;21982;49.804;24.072;2023-07-31T12:47:59;7.85;;;1.67;;
35877;SDS011;21982;49.804;24.072;2023-07-31T12:50:25;9.43;;;2.85;;
35877;SDS011;21982;49.804;24.072;2023-07-31T12:52:52;3.90;;;1.50;;
35877;SDS011;21982;49.804;24.072;2023-07-31T12:55:18;8.32;;;1.70;;
35877;SDS011;21982;49.804;24.072;2023-07-31T12:57:44;7.95;;;2.40;;
35877;SDS011;21982;49.804;24.072;2023-07-31T13:00:09;5.60;;;2.15;;
35877;SDS011;21982;49.804;24.072;2023-07-31T13:02:36;6.80;;;2.13;;
35877;SDS011;21982;49.804;24.072;2023-07-31T13:05:01;17.63;;;3.58;;
35877;SDS011;21982;49.804;24.072;2023-07-31T13:07:27;9.85;;;2.92;;
35877;SDS011;21982;49.804;24.072;2023-07-31T13:09:52;16.90;;;3.35;;
35877;SDS011;21982;49.804;24.072;2023-07-31T13:12:18;11.80;;;3.00;;
35877;SDS011;21982;49.804;24.072;2023-07-31T13:14:43;8.40;;;2.15;;
35877;SDS011;21982;49.804;24.072;2023-07-31T13:17:08;6.95;;;2.65;;
35877;SDS011;21982;49.804;24.072;2023-07-31T13:19:34;5.22;;;2.20;;
35877;SDS011;21982;49.804;24.072;2023-07-31T13:21:59;5.75;;;2.70;;
35877;SDS011;21982;49.804;24.072;2023-07-31T13:24:25;4.13;;;1.95;;
35877;SDS011;21982;49.804;24.072;2023-07-31T13:26:50;4.30;;;2.33;;
35877;SDS011;21982;49.804;24.072;2023-07-31T13:29:16;3.03;;;1.92;;
35877;SDS011;21982;49.804;24.072;2023-07-31T13:31:42;3.08;;;2.13;;
35877;SDS011;21982;49.804;24.072;2023-07-31T13:34:07;3.28;;;2.10;;
35877;SDS011;21982;49.804;24.072;2023-07-31T13:36:32;6.82;;;2.47;;
35877;SDS011;21982;49.804;24.072;2023-07-31T13:38:59;10.80;;;2.80;;
35877;SDS011;21982;49.804;24.072;2023-07-31T13:41:25;6.55;;;2.30;;
35877;SDS011;21982;49.804;24.072;2023-07-31T13:43:50;7.70;;;2.33;;
35877;SDS011;21982;49.804;24.072;2023-07-31T13:46:16;5.53;;;2.40;;
35877;SDS011;21982;49.804;24.072;2023-07-31T13:48:44;7.60;;;2.95;;
35877;SDS011;21982;49.804;24.072;2023-07-31T13:51:09;6.05;;;3.35;;
35877;SDS011;21982;49.804;24.072;2023-07-31T13:53:35;5.28;;;2.65;;
35877;SDS011;21982;49.804;24.072;2023-07-31T13:56:00;5.80;;;2.83;;
35877;SDS011;21982;49.804;24.072;2023-07-31T13:58:26;6.25;;;3.00;;
35877;SDS011;21982;49.804;24.072;2023-07-31T14:00:51;6.10;;;2.72;;
35877;SDS011;21982;49.804;24.072;2023-07-31T14:03:16;6.78;;;2.72;;
35877;SDS011;21982;49.804;24.072;2023-07-31T14:05:42;5.10;;;2.55;;
35877;SDS011;21982;49.804;24.072;2023-07-31T14:08:10;5.05;;;2.58;;
35877;SDS011;21982;49.804;24.072;2023-07-31T14:10:35;3.45;;;2.25;;
35877;SDS011;21982;49.804;24.072;2023-07-31T14:13:01;5.80;;;2.08;;
35877;SDS011;21982;49.804;24.072;2023-07-31T14:15:26;3.65;;;2.08;;
35877;SDS011;21982;49.804;24.072;2023-07-31T14:17:51;4.30;;;2.38;;
35877;SDS011;21982;49.804;24.072;2023-07-31T14:20:17;6.00;;;1.70;;
35877;SDS011;21982;49.804;24.072;2023-07-31T14:22:43;5.03;;;1.52;;
35877;SDS011;21982;49.804;24.072;2023-07-31T14:25:08;4.18;;;1.90;;
35877;SDS011;21982;49.804;24.072;2023-07-31T14:27:35;5.53;;;1.98;;
35877;SDS011;21982;49.804;24.072;2023-07-31T14:30:01;4.15;;;2.40;;
35877;SDS011;21982;49.804;24.072;2023-07-31T14:32:27;4.53;;;1.88;;
35877;SDS011;21982;49.804;24.072;2023-07-31T14:34:52;9.80;;;4.50;;
35877;SDS011;21982;49.804;24.072;2023-07-31T14:37:17;4.50;;;1.92;;
35877;SDS011;21982;49.804;24.072;2023-07-31T14:39:43;4.88;;;2.35;;
35877;SDS011;21982;49.804;24.072;2023-07-31T14:42:09;7.32;;;2.20;;
35877;SDS011;21982;49.804;24.072;2023-07-31T14:44:34;5.15;;;2.50;;
35877;SDS011;21982;49.804;24.072;2023-07-31T14:47:00;4.22;;;2.15;;
35877;SDS011;21982;49.804;24.072;2023-07-31T14:49:25;4.68;;;2.28;;
35877;SDS011;21982;49.804;24.072;2023-07-31T14:51:53;5.95;;;2.13;;
35877;SDS011;21982;49.804;24.072;2023-07-31T14:54:22;5.28;;;2.50;;
35877;SDS011;21982;49.804;24.072;2023-07-31T14:56:48;3.67;;;1.95;;
35877;SDS011;21982;49.804;24.072;2023-07-31T14:59:16;5.97;;;2.38;;
35877;SDS011;21982;49.804;24.072;2023-07-31T15:01:43;6.07;;;2.30;;
35877;SDS011;21982;49.804;24.072;2023-07-31T15:04:08;4.18;;;2.13;;
35877;SDS011;21982;49.804;24.072;2023-07-31T15:06:34;5.57;;;2.17;;